21-->26/12: Vaguada navideña y tiempo severo?

Avatar de Usuario
Seba
Mensajes: 17034
Registrado: Mié Jul 15, 2009 3:31 pm
Ubicación: Palermo, CABA

Re: 21-->26/12: Vaguada navideña y tiempo severo?

Mensaje por Seba » Lun Dic 24, 2012 7:21 pm

Es muy raro ver el 18 UTC ahí arriba jajaj. Gracias a los chicos del SMN que se movieron para tenerlo!!!
Con raíces pero en libertad.

Avatar de Usuario
LisandroSc
Mensajes: 11218
Registrado: Dom Jul 12, 2009 10:13 pm
Ubicación: Parque Centenario, CABA

Re: 21-->26/12: Vaguada navideña y tiempo severo?

Mensaje por LisandroSc » Lun Dic 24, 2012 7:21 pm

Gracias chicos del SMN. El foro GUSTFRONT en su totalidad los aplaude!! :D :D
Meado por un Dinosaurio - Dios me odia! by Porra.

Avatar de Usuario
LeoLaPlata
Mensajes: 219
Registrado: Mié Jun 29, 2011 12:20 am
Ubicación: La Plata - Zona Parque San Martin

Re: 21-->26/12: Vaguada navideña y tiempo severo?

Mensaje por LeoLaPlata » Lun Dic 24, 2012 7:24 pm

Ruta 2 km 109, ahora mismo, por algun motivo, las fotos me salen al reves, pero las saco bien, sepan entender, voy viajando en un torino79 sin aire acomdicionado, estoy al borde del colapso :lol: :lol:
Adjuntos
image.jpg
Última edición por LeoLaPlata el Lun Dic 24, 2012 7:28 pm, editado 1 vez en total.

Avatar de Usuario
Diecha
Mensajes: 12413
Registrado: Jue Ago 25, 2011 9:31 pm
Ubicación: Lomas de Zamora

Re: 21-->26/12: Vaguada navideña y tiempo severo?

Mensaje por Diecha » Lun Dic 24, 2012 7:24 pm

Datos de las 19 hs:

- Rosario: SAAR 242200Z 36017KT CAVOK 35/25 Q0993
- Aeroparque: SABE 242200Z 34008KT 9999 FEW035 SCT200 34/26 Q0994
- Ezeiza: SAEZ 242200Z 34013KT CAVOK 36/24 Q0994
- Mar del Plata: SAZM 242200Z 14019KT 2000 TSRA BKN008 OVC030 FEW040CB 19/18 Q0996

Imagen

Avatar de Usuario
LisandroSc
Mensajes: 11218
Registrado: Dom Jul 12, 2009 10:13 pm
Ubicación: Parque Centenario, CABA

Re: 21-->26/12: Vaguada navideña y tiempo severo?

Mensaje por LisandroSc » Lun Dic 24, 2012 7:28 pm

Noooo impresionanteee!!!

Actual: 989.7 hPa
Meado por un Dinosaurio - Dios me odia! by Porra.

Avatar de Usuario
bruno_eltiempo
Mensajes: 415
Registrado: Mar Ago 17, 2010 10:57 pm
Ubicación: San Fernando, zona norte GBA

Re: 21-->26/12: Vaguada navideña y tiempo severo?

Mensaje por bruno_eltiempo » Lun Dic 24, 2012 7:29 pm

Que raro ver que diga 18z... :P
IMPRESIONANTEEE ese sondeo por dios! :shock: :shock: :o :o :o :o

Todo GUSTFRONT agradece al personal del SMN por este gran trabajo que hicieron, muchas gracias!
Quedará en la historia de los seguimientos sin duda... :mrgreen:
Dios perdona, el hombre a veces, la naturaleza nunca.

Avatar de Usuario
maatii96
Mensajes: 4824
Registrado: Lun Abr 16, 2012 7:07 pm
Ubicación: Ramos Mejía | GBA Oeste

Re: 21-->26/12: Vaguada navideña y tiempo severo?

Mensaje por maatii96 » Lun Dic 24, 2012 7:29 pm

LisandroSc escribió:Noooo impresionanteee!!!

Actual: 989.7 hPa
:shock: :shock: :shock: :shock: :shock:

Avatar de Usuario
clau8821
Mensajes: 398
Registrado: Vie Dic 18, 2009 2:32 pm
Ubicación: pilar, buenos aires
Contactar:

Re: 21-->26/12: Vaguada navideña y tiempo severo?

Mensaje por clau8821 » Lun Dic 24, 2012 7:30 pm

sin palabras la presion por el piso meparece que nos volamos malllllllllllllllllllllllllllllllllllllllllll......XD 8-) :shock:

Avatar de Usuario
Max
Mensajes: 7465
Registrado: Dom Feb 07, 2010 11:58 pm
Ubicación: Florida, Gran Buenos Aires

Re: 21-->26/12: Vaguada navideña y tiempo severo?

Mensaje por Max » Lun Dic 24, 2012 7:32 pm

LisandroSc escribió:Gracias chicos del SMN. El foro GUSTFRONT en su totalidad los aplaude!! :D :D
Adhiero totalmente.

Bueno, ya tuvimos temperaturas y STs (discutibles o no) record, ahora, vení linea y barré todo de una buena vez, que ya no se soporta este calorrrrrr!!! :lol:
Año de “La unión por el bien común”

Avatar de Usuario
pupy
Mensajes: 2473
Registrado: Mar Mar 02, 2010 7:15 pm
Ubicación: Cordoba capital

Re: 21-->26/12: Vaguada navideña y tiempo severo?

Mensaje por pupy » Lun Dic 24, 2012 7:34 pm

[youtube][/youtube] :o :o :o

Cerrado